createdAt,value
2023-05-02T00:03:56.988Z,100887.16
2023-05-02T00:08:58.917Z,100888.25
2023-05-02T00:14:00.745Z,100880.03
2023-05-02T00:19:02.513Z,100879.28
2023-05-02T00:24:04.848Z,100886.44
2023-05-02T00:29:07.944Z,100882.84
2023-05-02T00:34:09.726Z,100879.66
2023-05-02T00:39:11.517Z,100877.88
2023-05-02T00:44:13.400Z,100876.09
2023-05-02T00:49:15.178Z,100879.56
2023-05-02T00:54:17.053Z,100882.66
2023-05-02T00:59:19.190Z,100880.88
2023-05-02T01:04:59.757Z,100887.19
2023-05-02T01:10:23.946Z,100881.59
2023-05-02T01:15:26.678Z,100884.44
2023-05-02T01:20:33.051Z,100892.72
2023-05-02T01:26:17.911Z,100899.00
2023-05-02T01:31:20.213Z,100898.59
2023-05-02T01:36:27.050Z,100903.66
2023-05-02T01:41:32.379Z,100909.75
2023-05-02T01:46:40.315Z,100908.34
2023-05-02T01:51:50.205Z,100920.50
2023-05-02T01:56:52.364Z,100920.31
2023-05-02T02:01:56.320Z,100923.97
2023-05-02T02:07:13.071Z,100929.84
2023-05-02T02:12:47.682Z,100947.28
2023-05-02T02:18:02.178Z,100948.50
2023-05-02T02:23:08.627Z,100951.72
2023-05-02T02:28:10.566Z,100946.91
2023-05-02T02:33:12.447Z,100956.00
2023-05-02T02:38:37.164Z,100963.66
2023-05-02T02:44:06.025Z,100970.94
2023-05-02T02:49:51.241Z,100979.59
2023-05-02T02:55:06.705Z,100993.91
2023-05-02T03:00:28.459Z,101007.81
2023-05-02T03:05:33.693Z,101014.28
2023-05-02T03:10:35.787Z,101028.19
2023-05-02T03:16:06.815Z,101035.22
2023-05-02T03:21:08.841Z,101049.75
2023-05-02T03:26:11.099Z,101056.34
2023-05-02T03:31:14.835Z,101060.97
2023-05-02T03:36:16.928Z,101053.25
2023-05-02T03:41:20.883Z,101061.69
2023-05-02T03:46:22.666Z,101066.31
2023-05-02T03:51:24.532Z,101069.13
2023-05-02T03:56:26.369Z,101073.78
2023-05-02T04:01:28.236Z,101090.31
2023-05-02T04:06:30.321Z,101093.31
2023-05-02T04:11:32.209Z,101100.16
2023-05-02T04:16:33.984Z,101109.03
2023-05-02T04:21:37.570Z,101106.22
2023-05-02T04:26:39.338Z,101119.16
2023-05-02T04:31:41.520Z,101123.19
2023-05-02T04:36:49.350Z,101122.97
2023-05-02T04:41:51.260Z,101130.28
2023-05-02T04:46:53.471Z,101145.03
2023-05-02T04:51:57.938Z,101144.09
2023-05-02T04:56:59.905Z,101150.56
2023-05-02T05:02:02.600Z,101159.22
2023-05-02T05:07:04.374Z,101173.34
2023-05-02T05:12:06.143Z,101184.41
2023-05-02T05:17:07.942Z,101179.94
2023-05-02T05:22:09.916Z,101195.25
2023-05-02T05:27:11.763Z,101200.06
2023-05-02T05:32:13.774Z,101195.47
2023-05-02T05:37:15.935Z,101216.72
2023-05-02T05:42:17.719Z,101230.69
2023-05-02T05:47:24.208Z,101229.72
2023-05-02T05:52:26.715Z,101243.13
2023-05-02T05:57:30.588Z,101248.84
2023-05-02T06:02:35.505Z,101262.31
2023-05-02T06:07:37.356Z,101268.31
2023-05-02T06:12:39.198Z,101279.16
2023-05-02T06:17:41.160Z,101300.25
2023-05-02T06:22:42.964Z,101299.72
2023-05-02T06:27:44.748Z,101315.25
2023-05-02T06:32:46.853Z,101311.94
2023-05-02T06:37:48.656Z,101311.03
2023-05-02T06:42:50.414Z,101322.19
2023-05-02T06:47:52.260Z,101347.81
2023-05-02T06:52:54.062Z,101338.81
2023-05-02T06:57:55.945Z,101339.03
2023-05-02T07:02:57.974Z,101352.41
2023-05-02T07:08:00.087Z,101374.69
2023-05-02T07:13:01.888Z,101389.91
2023-05-02T07:18:03.781Z,101383.47
2023-05-02T07:23:05.551Z,101384.88
2023-05-02T07:28:09.123Z,101389.63
2023-05-02T07:33:11.113Z,101397.75
2023-05-02T07:38:12.955Z,101398.03
2023-05-02T07:43:16.007Z,101407.38
2023-05-02T07:48:17.898Z,101412.78
2023-05-02T07:53:19.742Z,101427.19
2023-05-02T07:58:21.638Z,101427.66
2023-05-02T08:03:23.768Z,101430.28
2023-05-02T08:08:25.754Z,101430.88
2023-05-02T08:13:28.410Z,101441.19
2023-05-02T08:18:30.396Z,101441.38
2023-05-02T08:23:32.230Z,101452.72
2023-05-02T08:28:34.064Z,101465.53
2023-05-02T08:33:35.872Z,101472.63
2023-05-02T08:38:37.695Z,101468.53
2023-05-02T08:43:40.880Z,101483.72
2023-05-02T08:48:48.110Z,101481.28
2023-05-02T08:53:53.791Z,101491.19
2023-05-02T08:58:55.648Z,101490.94
2023-05-02T09:03:59.195Z,101515.81
2023-05-02T09:09:01.319Z,101514.72
2023-05-02T09:14:16.267Z,101521.47
2023-05-02T09:19:26.282Z,101523.69
2023-05-02T09:24:29.763Z,101541.47
2023-05-02T09:29:37.936Z,101550.28
2023-05-02T09:34:39.911Z,101558.03
2023-05-02T09:39:41.702Z,101564.94
2023-05-02T09:44:43.936Z,101560.25
2023-05-02T09:49:46.778Z,101564.53
2023-05-02T09:54:52.784Z,101577.63
2023-05-02T09:59:58.103Z,101574.47
2023-05-02T10:05:04.615Z,101573.59
2023-05-02T10:10:11.388Z,101588.34
2023-05-02T10:15:18.391Z,101594.13
2023-05-02T10:20:30.239Z,101610.69
2023-05-02T10:25:34.408Z,101626.72
2023-05-02T10:30:37.184Z,101639.63
2023-05-02T10:35:48.111Z,101651.25
2023-05-02T10:41:14.509Z,101666.28
2023-05-02T10:46:41.326Z,101682.78
2023-05-02T10:51:43.568Z,101689.13
2023-05-02T10:57:03.823Z,101701.56
2023-05-02T11:02:28.155Z,101707.59
2023-05-02T11:07:38.907Z,101713.75
2023-05-02T11:12:50.677Z,101723.00
2023-05-02T11:18:03.588Z,101730.22
2023-05-02T11:23:16.643Z,101731.31
2023-05-02T11:28:36.864Z,101731.56
2023-05-02T11:33:38.849Z,101737.03
2023-05-02T11:38:40.665Z,101741.72
2023-05-02T11:43:42.405Z,101745.72
2023-05-02T11:48:44.510Z,101752.94
2023-05-02T11:53:46.285Z,101749.25
2023-05-02T11:58:59.925Z,101754.69
2023-05-02T12:04:08.159Z,101759.28
2023-05-02T12:09:17.148Z,101769.63
2023-05-02T12:14:32.485Z,101773.31
2023-05-02T12:19:37.064Z,101779.69
2023-05-02T12:24:39.225Z,101784.91
2023-05-02T12:29:47.106Z,101790.97
2023-05-02T12:34:50.097Z,101797.66
2023-05-02T12:39:53.440Z,101800.13
2023-05-02T12:44:56.865Z,101799.53
2023-05-02T12:50:00.307Z,101803.34
2023-05-02T12:55:28.196Z,101805.03
2023-05-02T13:00:32.686Z,101817.09
2023-05-02T13:05:35.591Z,101813.41
2023-05-02T13:10:37.441Z,101798.72
2023-05-02T13:15:39.238Z,101812.84
2023-05-02T13:20:41.048Z,101819.13
2023-05-02T13:25:43.450Z,101829.91
2023-05-02T13:30:45.450Z,101820.47
2023-05-02T13:35:47.242Z,101838.16
2023-05-02T13:40:50.157Z,101846.34
2023-05-02T13:45:52.369Z,101852.38
2023-05-02T13:50:54.210Z,101853.34
2023-05-02T13:55:55.966Z,101862.91
2023-05-02T14:00:57.941Z,101864.72
2023-05-02T14:05:59.769Z,101870.06
2023-05-02T14:11:01.749Z,101876.03
2023-05-02T14:16:04.440Z,101878.03
2023-05-02T14:21:06.518Z,101882.56
2023-05-02T14:26:08.854Z,101903.47
2023-05-02T14:31:11.421Z,101896.72
2023-05-02T14:36:13.281Z,101913.44
2023-05-02T14:41:15.164Z,101920.34
2023-05-02T14:46:16.948Z,101919.53
2023-05-02T14:51:18.725Z,101911.59
2023-05-02T14:56:20.753Z,101919.53
2023-05-02T15:01:23.005Z,101924.75
2023-05-02T15:06:25.032Z,101922.66
2023-05-02T15:11:27.029Z,101928.59
2023-05-02T15:16:29.791Z,101930.56
2023-05-02T15:21:32.606Z,101938.44
2023-05-02T15:26:34.482Z,101940.81
2023-05-02T15:31:36.984Z,101935.22
2023-05-02T15:36:38.806Z,101934.66
2023-05-02T15:41:41.894Z,101933.00
2023-05-02T15:46:46.824Z,101930.81
2023-05-02T15:51:49.056Z,101933.53
2023-05-02T15:56:50.832Z,101929.97
2023-05-02T16:01:52.679Z,101938.94
2023-05-02T16:06:54.815Z,101951.63
2023-05-02T16:11:57.863Z,101947.06
2023-05-02T16:16:59.806Z,101950.25
2023-05-02T16:22:02.319Z,101954.56
2023-05-02T16:27:04.721Z,101946.75
2023-05-02T16:32:08.199Z,101939.00
2023-05-02T16:37:09.971Z,101948.50
2023-05-02T16:42:12.769Z,101946.56
2023-05-02T16:47:14.855Z,101944.81
2023-05-02T16:52:16.853Z,101952.84
2023-05-02T16:57:23.190Z,101950.72
2023-05-02T17:02:25.290Z,101959.03
2023-05-02T17:07:28.877Z,101957.66
2023-05-02T17:12:32.484Z,101956.03
2023-05-02T17:17:34.545Z,101965.03
2023-05-02T17:22:38.551Z,101971.34
2023-05-02T17:27:41.351Z,101973.97
2023-05-02T17:32:46.547Z,101977.94
2023-05-02T17:37:49.006Z,101976.78
2023-05-02T17:42:50.901Z,101984.81
2023-05-02T17:47:53.186Z,101984.00
2023-05-02T17:52:55.152Z,101987.75
2023-05-02T17:57:59.146Z,101990.91
2023-05-02T18:03:02.008Z,101996.50
2023-05-02T18:08:04.362Z,102002.72
2023-05-02T18:13:06.266Z,102006.66
2023-05-02T18:18:08.232Z,102015.19
2023-05-02T18:23:10.123Z,102016.38
2023-05-02T18:28:13.275Z,102024.06
2023-05-02T18:33:15.416Z,102014.22
2023-05-02T18:38:18.212Z,102025.19
2023-05-02T18:43:20.239Z,102018.00
2023-05-02T18:48:22.592Z,102019.81
2023-05-02T18:53:26.235Z,102025.22
2023-05-02T18:58:28.742Z,102039.00
2023-05-02T19:03:30.759Z,102038.81
2023-05-02T19:08:32.608Z,102046.34
2023-05-02T19:13:34.629Z,102050.94
2023-05-02T19:18:36.439Z,102061.44
2023-05-02T19:23:43.850Z,102061.09
2023-05-02T19:28:46.173Z,102074.34
2023-05-02T19:33:51.901Z,102079.91
2023-05-02T19:38:57.878Z,102083.19
2023-05-02T19:44:00.339Z,102094.50
2023-05-02T19:49:02.158Z,102102.84
2023-05-02T19:54:04.153Z,102104.00
2023-05-02T19:59:06.476Z,102109.53
2023-05-02T20:04:08.208Z,102118.88
2023-05-02T20:09:11.390Z,102114.28
2023-05-02T20:14:13.226Z,102117.88
2023-05-02T20:19:15.120Z,102128.53
2023-05-02T20:24:17.039Z,102139.13
2023-05-02T20:29:18.860Z,102140.28
2023-05-02T20:34:20.974Z,102139.63
2023-05-02T20:39:23.185Z,102148.94
2023-05-02T20:44:26.903Z,102150.06
2023-05-02T20:49:32.663Z,102155.25
2023-05-02T20:54:34.548Z,102162.91
2023-05-02T20:59:36.475Z,102160.09
2023-05-02T21:04:38.404Z,102158.94
2023-05-02T21:09:40.252Z,102161.88
2023-05-02T21:14:42.136Z,102168.22
2023-05-02T21:19:43.958Z,102175.75
2023-05-02T21:24:48.140Z,102169.63
2023-05-02T21:29:50.107Z,102179.91
2023-05-02T21:34:53.768Z,102175.94
2023-05-02T21:39:58.914Z,102181.66
2023-05-02T21:45:02.612Z,102181.94
2023-05-02T21:50:05.542Z,102181.47
2023-05-02T21:55:08.231Z,102182.13
2023-05-02T22:00:13.013Z,102188.16
2023-05-02T22:05:15.668Z,102184.88
2023-05-02T22:10:17.734Z,102184.19
2023-05-02T22:15:19.523Z,102195.47
2023-05-02T22:20:22.862Z,102192.88
2023-05-02T22:25:24.605Z,102190.56
2023-05-02T22:30:26.605Z,102206.91
2023-05-02T22:35:28.613Z,102210.50
2023-05-02T22:40:31.621Z,102212.75
2023-05-02T22:45:33.888Z,102213.19
2023-05-02T22:50:35.644Z,102221.50
2023-05-02T22:55:39.174Z,102226.84
2023-05-02T23:00:41.137Z,102235.81
2023-05-02T23:05:42.945Z,102231.41
2023-05-02T23:10:44.725Z,102236.13
2023-05-02T23:15:46.561Z,102238.22
2023-05-02T23:20:48.680Z,102233.16
2023-05-02T23:25:50.472Z,102244.03
2023-05-02T23:30:53.582Z,102241.59
2023-05-02T23:35:55.745Z,102245.47
2023-05-02T23:40:57.685Z,102251.81
2023-05-02T23:45:59.457Z,102242.31
2023-05-02T23:51:01.229Z,102243.75
2023-05-02T23:56:02.963Z,102241.75
